Time;durP1;ratioP1;P1;durP2;ratioP2;P2;SDS_P1;SDS_P2;PMS_P1;PMS_P2;Temp;Humidity;BMP_temperature;BMP_pressure;BME280_temperature;BME280_humidity;BME280_pressure;Samples;Min_cycle;Max_cycle;Signal;HPM_P1;HPM_P2
2022/06/07 00:00:48;;;;;;;0.20;0.20;;;12.80;99.90;;;;;;5055739;28;20463;-83
2022/06/07 00:03:13;;;;;;;0.33;0.33;;;12.60;99.90;;;;;;5058434;28;20445;-85
2022/06/07 00:05:41;;;;;;;0.20;0.20;;;12.70;99.90;;;;;;5052634;28;20598;-83
2022/06/07 00:08:07;;;;;;;0.20;0.20;;;12.70;99.90;;;;;;5050256;28;20227;-84
2022/06/07 00:10:33;;;;;;;0.10;0.10;;;12.70;99.90;;;;;;5052877;28;20444;-83
2022/06/07 00:12:58;;;;;;;0.47;0.47;;;12.70;99.90;;;;;;5055161;28;20574;-84
2022/06/07 00:15:24;;;;;;;0.27;0.27;;;12.60;99.90;;;;;;5060419;28;20441;-83
2022/06/07 00:17:50;;;;;;;0.10;0.10;;;12.70;99.90;;;;;;5047105;28;20635;-86
2022/06/07 00:20:16;;;;;;;0.10;0.10;;;12.70;99.90;;;;;;5051593;28;20445;-84
2022/06/07 00:22:42;;;;;;;0.30;0.30;;;12.70;99.90;;;;;;5062486;28;20197;-83
2022/06/07 00:25:11;;;;;;;0.23;0.23;;;12.70;99.90;;;;;;5055813;28;20186;-84
2022/06/07 00:27:36;;;;;;;0.20;0.20;;;12.60;99.90;;;;;;5053285;28;20433;-83
2022/06/07 00:30:03;;;;;;;0.20;0.20;;;12.50;99.90;;;;;;5053709;28;20959;-83
2022/06/07 00:32:29;;;;;;;0.20;0.20;;;12.50;99.90;;;;;;5048882;28;20226;-85
2022/06/07 00:34:55;;;;;;;0.10;0.10;;;12.60;99.90;;;;;;5051434;28;20436;-85
2022/06/07 00:37:20;;;;;;;0.20;0.20;;;12.40;99.90;;;;;;5061636;28;20212;-84
2022/06/07 00:39:46;;;;;;;0.30;0.30;;;12.40;99.90;;;;;;5052231;28;20547;-84
2022/06/07 00:42:11;;;;;;;0.20;0.20;;;12.40;99.90;;;;;;5064321;28;20221;-85
2022/06/07 00:44:44;;;;;;;0.20;0.20;;;12.30;99.90;;;;;;5050563;28;20568;-84
2022/06/07 00:47:23;;;;;;;0.20;0.20;;;12.40;99.90;;;;;;5051215;28;20187;-84
2022/06/07 00:50:10;;;;;;;0.30;0.30;;;12.40;99.90;;;;;;5046532;28;20943;-84
2022/06/07 00:52:36;;;;;;;0.10;0.10;;;12.30;99.90;;;;;;5050228;28;20481;-85
2022/06/07 00:55:03;;;;;;;0.20;0.20;;;12.20;99.90;;;;;;5048689;28;20416;-84
2022/06/07 00:57:29;;;;;;;0.40;0.40;;;12.30;99.90;;;;;;5054320;28;20228;-85
2022/06/07 00:59:55;;;;;;;0.20;0.20;;;12.40;99.90;;;;;;5064722;28;20461;-84
2022/06/07 01:02:22;;;;;;;0.20;0.20;;;12.30;99.90;;;;;;5056657;28;20522;-85
2022/06/07 01:04:48;;;;;;;0.10;0.10;;;12.30;99.90;;;;;;5049662;28;20538;-84
2022/06/07 01:12:43;;;;;;;0.30;0.30;;;12.20;99.90;;;;;;5058029;28;20486;-84
2022/06/07 01:15:09;;;;;;;0.10;0.10;;;12.20;99.90;;;;;;5036817;28;20442;-84
2022/06/07 01:17:35;;;;;;;0.27;0.27;;;12.30;99.90;;;;;;5049944;28;20457;-85
2022/06/07 01:20:01;;;;;;;0.20;0.20;;;12.20;99.90;;;;;;5050592;28;20455;-84
2022/06/07 01:22:26;;;;;;;0.10;0.10;;;12.20;99.90;;;;;;5053073;28;20638;-79
2022/06/07 01:24:53;;;;;;;0.20;0.20;;;12.20;99.90;;;;;;5046985;28;20654;-85
2022/06/07 01:27:19;;;;;;;0.20;0.20;;;12.20;99.90;;;;;;5052398;28;20194;-84
2022/06/07 01:29:45;;;;;;;0.20;0.20;;;12.20;99.90;;;;;;5055190;28;20451;-85
2022/06/07 01:32:12;;;;;;;0.20;0.20;;;12.20;99.90;;;;;;5060725;28;20558;-85
2022/06/07 01:34:42;;;;;;;0.20;0.20;;;12.30;99.90;;;;;;5057747;28;20195;-85
2022/06/07 01:37:10;;;;;;;0.10;0.10;;;12.30;99.90;;;;;;5051183;28;20836;-85
2022/06/07 01:42:21;;;;;;;0.20;0.20;;;12.20;99.90;;;;;;5051548;28;20542;-84
2022/06/07 01:44:48;;;;;;;0.20;0.20;;;12.20;99.90;;;;;;5059001;28;20543;-85
2022/06/07 01:47:17;;;;;;;0.20;0.20;;;12.20;99.90;;;;;;5067443;28;21027;-85
2022/06/07 01:49:43;;;;;;;0.20;0.20;;;12.20;99.90;;;;;;5054685;28;20552;-85
2022/06/07 01:52:10;;;;;;;0.20;0.20;;;12.20;99.90;;;;;;5048611;28;20487;-86
2022/06/07 01:54:36;;;;;;;0.20;0.20;;;12.20;99.90;;;;;;5085345;28;20435;-85
2022/06/07 01:57:02;;;;;;;0.20;0.20;;;12.20;99.90;;;;;;5065662;28;20437;-84
2022/06/07 01:59:27;;;;;;;0.20;0.20;;;12.30;99.90;;;;;;5052575;28;20530;-86
2022/06/07 02:01:53;;;;;;;0.20;0.20;;;12.20;99.90;;;;;;5047615;28;20650;-87
2022/06/07 02:04:21;;;;;;;0.20;0.20;;;12.20;99.90;;;;;;5049993;28;20191;-85
2022/06/07 02:06:47;;;;;;;0.20;0.20;;;12.20;99.90;;;;;;5048459;28;20452;-85
2022/06/07 02:09:12;;;;;;;0.10;0.10;;;12.10;99.90;;;;;;5052025;28;20476;-85
2022/06/07 02:11:38;;;;;;;0.20;0.20;;;12.10;99.90;;;;;;5070863;28;20832;-85
2022/06/07 02:14:05;;;;;;;0.20;0.20;;;12.10;99.90;;;;;;5054709;28;20186;-88
2022/06/07 02:16:31;;;;;;;0.23;0.23;;;12.20;99.90;;;;;;5052282;28;20993;-87
2022/06/07 02:18:56;;;;;;;0.27;0.27;;;12.10;99.90;;;;;;5060776;28;20480;-87
2022/06/07 02:21:24;;;;;;;0.20;0.20;;;12.10;99.90;;;;;;5052760;28;20673;-87
2022/06/07 02:23:50;;;;;;;0.30;0.30;;;12.10;99.90;;;;;;5054983;28;20198;-87
2022/06/07 02:26:23;;;;;;;0.20;0.20;;;12.10;99.90;;;;;;5062348;28;20436;-85
2022/06/07 02:29:10;;;;;;;0.27;0.27;;;12.00;99.90;;;;;;5054128;28;20453;-85
2022/06/07 02:31:38;;;;;;;0.20;0.20;;;12.10;99.90;;;;;;5051396;28;21058;-87
2022/06/07 02:34:05;;;;;;;0.20;0.20;;;12.00;99.90;;;;;;5057643;28;20441;-80
2022/06/07 02:36:31;;;;;;;0.10;0.10;;;12.10;99.90;;;;;;5051113;28;20507;-87
2022/06/07 02:38:58;;;;;;;0.20;0.20;;;12.10;99.90;;;;;;5051094;28;20451;-86
2022/06/07 02:41:26;;;;;;;0.20;0.20;;;12.20;99.90;;;;;;5056124;28;20445;-86
2022/06/07 02:43:53;;;;;;;0.23;0.23;;;12.10;99.90;;;;;;5048572;28;20484;-88
2022/06/07 02:46:18;;;;;;;0.20;0.20;;;12.10;99.90;;;;;;5047399;28;20440;-85
2022/06/07 02:48:43;;;;;;;0.20;0.20;;;12.20;99.90;;;;;;5052331;28;20510;-79
2022/06/07 02:51:09;;;;;;;0.20;0.20;;;12.20;99.90;;;;;;5049580;28;20682;-85
2022/06/07 02:53:35;;;;;;;0.10;0.10;;;12.20;99.90;;;;;;5056417;28;20215;-84
2022/06/07 02:56:00;;;;;;;0.10;0.10;;;12.20;99.90;;;;;;5057867;28;20277;-84
2022/06/07 02:58:26;;;;;;;0.20;0.20;;;12.20;99.90;;;;;;5061853;28;20204;-84
2022/06/07 03:00:52;;;;;;;0.20;0.20;;;12.20;99.90;;;;;;5070152;28;20189;-86
2022/06/07 03:03:17;;;;;;;0.17;0.17;;;12.20;99.90;;;;;;5054067;28;20248;-84
2022/06/07 03:05:43;;;;;;;0.10;0.10;;;12.20;99.90;;;;;;5049186;28;20187;-83
2022/06/07 03:08:09;;;;;;;0.20;0.20;;;12.20;99.90;;;;;;5056349;28;20182;-85
2022/06/07 03:10:35;;;;;;;0.20;0.20;;;12.20;99.90;;;;;;5059905;28;20448;-85
2022/06/07 03:13:00;;;;;;;0.20;0.20;;;12.20;99.90;;;;;;5050402;28;20210;-80
2022/06/07 03:15:26;;;;;;;0.20;0.20;;;12.20;99.90;;;;;;5050852;28;20444;-83
2022/06/07 03:17:51;;;;;;;0.10;0.10;;;12.30;99.90;;;;;;5047933;28;20190;-89
2022/06/07 03:20:17;;;;;;;0.10;0.10;;;12.20;99.90;;;;;;5049856;28;20198;-88
2022/06/07 03:22:42;;;;;;;0.10;0.10;;;12.30;99.90;;;;;;5052637;28;20198;-85
2022/06/07 03:25:11;;;;;;;0.10;0.10;;;12.20;99.90;;;;;;5056384;28;20224;-87
2022/06/07 03:27:37;;;;;;;0.10;0.10;;;12.30;99.90;;;;;;5064361;28;20181;-88
2022/06/07 03:30:08;;;;;;;0.20;0.20;;;12.30;99.90;;;;;;5056772;28;20456;-85
2022/06/07 03:32:35;;;;;;;0.10;0.10;;;12.30;99.90;;;;;;5048437;28;20476;-86
2022/06/07 03:35:01;;;;;;;0.20;0.20;;;12.30;99.90;;;;;;5048818;28;20441;-87
2022/06/07 03:37:26;;;;;;;0.10;0.10;;;12.40;99.90;;;;;;5051623;28;20959;-87
2022/06/07 03:39:52;;;;;;;0.10;0.10;;;12.30;99.90;;;;;;5060215;28;20191;-85
2022/06/07 03:42:18;;;;;;;0.10;0.10;;;12.30;99.90;;;;;;5049843;28;20187;-85
2022/06/07 03:44:48;;;;;;;0.20;0.20;;;12.30;99.90;;;;;;5049646;28;20938;-82
2022/06/07 03:47:18;;;;;;;0.10;0.10;;;12.30;99.90;;;;;;5058987;28;20516;-90
2022/06/07 03:49:46;;;;;;;0.10;0.10;;;12.30;99.90;;;;;;5053342;28;20795;-88
2022/06/07 03:52:12;;;;;;;0.20;0.20;;;12.30;99.90;;;;;;5047629;28;20890;-84
2022/06/07 03:54:38;;;;;;;0.10;0.10;;;12.30;99.90;;;;;;5049512;28;20479;-86
2022/06/07 03:57:04;;;;;;;0.20;0.20;;;12.30;99.90;;;;;;5052386;28;20452;-85
2022/06/07 03:59:30;;;;;;;0.10;0.10;;;12.30;99.90;;;;;;5069985;28;20447;-86
2022/06/07 04:01:55;;;;;;;0.20;0.20;;;12.30;99.90;;;;;;5062677;28;20444;-84
2022/06/07 04:04:21;;;;;;;0.10;0.10;;;12.30;99.90;;;;;;5064990;28;20186;-82
2022/06/07 04:09:39;;;;;;;0.20;0.20;;;12.30;99.90;;;;;;5058873;28;20651;-85
2022/06/07 04:12:08;;;;;;;0.10;0.10;;;12.30;99.90;;;;;;5072864;28;21111;-85
2022/06/07 04:14:34;;;;;;;0.10;0.10;;;12.30;99.90;;;;;;5068937;28;20440;-84
2022/06/07 04:17:00;;;;;;;0.10;0.10;;;12.30;99.90;;;;;;5054086;28;20441;-85
2022/06/07 04:19:25;;;;;;;0.20;0.20;;;12.30;99.90;;;;;;5056992;28;20528;-86
2022/06/07 04:21:51;;;;;;;0.10;0.10;;;12.40;99.90;;;;;;5050323;28;20190;-83
2022/06/07 04:24:16;;;;;;;0.10;0.10;;;12.40;99.90;;;;;;5052572;28;20178;-85
2022/06/07 04:26:42;;;;;;;0.10;0.10;;;12.40;99.90;;;;;;5061312;28;20889;-88
2022/06/07 04:29:07;;;;;;;0.10;0.10;;;12.40;99.90;;;;;;5069516;28;20252;-87
2022/06/07 04:31:33;;;;;;;0.10;0.10;;;12.40;99.90;;;;;;5062784;28;20587;-84
2022/06/07 04:33:58;;;;;;;0.10;0.10;;;12.40;99.90;;;;;;5057710;28;20229;-88
2022/06/07 04:36:26;;;;;;;0.10;0.10;;;12.40;99.90;;;;;;5051639;28;20182;-86
2022/06/07 04:38:53;;;;;;;0.20;0.20;;;12.40;99.90;;;;;;5057009;28;20917;-83
2022/06/07 04:41:20;;;;;;;0.10;0.10;;;12.40;99.90;;;;;;5049316;28;20546;-83
2022/06/07 04:43:51;;;;;;;0.10;0.10;;;12.50;99.90;;;;;;5060865;28;20822;-83
2022/06/07 04:46:17;;;;;;;0.10;0.10;;;12.50;99.90;;;;;;5049763;28;20449;-85
2022/06/07 04:48:45;;;;;;;0.10;0.10;;;12.50;99.90;;;;;;5042157;28;20448;-91
2022/06/07 04:51:17;;;;;;;0.10;0.10;;;12.50;99.90;;;;;;5051180;28;20530;-88
2022/06/07 04:53:43;;;;;;;0.10;0.10;;;12.60;99.90;;;;;;5050508;28;20539;-89
2022/06/07 04:56:22;;;;;;;0.30;0.30;;;12.70;99.90;;;;;;5064382;28;21064;-86
2022/06/07 04:58:48;;;;;;;0.10;0.10;;;12.60;99.90;;;;;;5065553;28;20243;-86
2022/06/07 05:01:22;;;;;;;0.10;0.10;;;12.70;99.90;;;;;;5045486;28;20484;-86
2022/06/07 05:03:49;;;;;;;0.20;0.20;;;12.70;99.90;;;;;;5054832;28;20445;-89
2022/06/07 05:06:29;;;;;;;0.30;0.30;;;12.70;99.90;;;;;;5050652;28;20532;-85
2022/06/07 05:08:58;;;;;;;0.20;0.20;;;12.70;99.90;;;;;;5046277;28;20510;-84
2022/06/07 05:11:25;;;;;;;0.50;0.50;;;12.80;99.90;;;;;;5051951;28;20504;-82
2022/06/07 05:13:58;;;;;;;0.30;0.30;;;12.70;99.90;;;;;;5068173;28;20452;-86
2022/06/07 05:16:25;;;;;;;0.40;0.40;;;12.80;99.90;;;;;;5047213;28;21459;-85
2022/06/07 05:18:52;;;;;;;0.30;0.30;;;12.80;99.90;;;;;;5052582;28;20807;-85
2022/06/07 05:21:19;;;;;;;0.17;0.17;;;12.80;99.90;;;;;;5052951;28;20539;-83
2022/06/07 05:23:45;;;;;;;0.30;0.30;;;12.80;99.90;;;;;;5050117;28;20830;-86
2022/06/07 05:26:34;;;;;;;0.30;0.30;;;12.80;99.90;;;;;;5048878;28;20445;-84
2022/06/07 05:29:00;;;;;;;0.30;0.30;;;12.80;99.90;;;;;;5058069;28;20205;-85
2022/06/07 05:31:26;;;;;;;0.50;0.50;;;12.80;99.90;;;;;;5051159;28;20473;-80
2022/06/07 05:33:52;;;;;;;0.40;0.40;;;12.80;99.90;;;;;;5049971;28;20463;-86
2022/06/07 05:36:19;;;;;;;0.47;0.47;;;12.90;99.90;;;;;;5050080;28;20293;-83
2022/06/07 05:38:45;;;;;;;0.40;0.40;;;12.90;99.90;;;;;;5050363;28;20453;-83
2022/06/07 05:41:20;;;;;;;0.20;0.20;;;12.80;99.90;;;;;;5055486;28;20451;-85
2022/06/07 05:43:46;;;;;;;0.20;0.20;;;12.90;99.90;;;;;;5049533;28;20439;-85
2022/06/07 05:46:12;;;;;;;0.10;0.10;;;13.00;99.90;;;;;;5055875;28;20729;-87
2022/06/07 05:48:37;;;;;;;0.10;0.10;;;12.90;99.90;;;;;;5050281;28;20305;-82
2022/06/07 05:51:03;;;;;;;0.20;0.20;;;12.90;99.90;;;;;;5061630;28;20209;-86
2022/06/07 05:53:29;;;;;;;0.10;0.10;;;12.90;99.90;;;;;;5068992;28;20178;-80
2022/06/07 05:55:54;;;;;;;0.30;0.30;;;12.90;99.90;;;;;;5054924;28;20961;-88
2022/06/07 05:58:20;;;;;;;0.20;0.20;;;12.90;99.90;;;;;;5061399;28;20202;-85
2022/06/07 06:00:46;;;;;;;0.20;0.20;;;13.00;99.90;;;;;;5050867;28;20190;-86
2022/06/07 06:03:12;;;;;;;0.30;0.30;;;13.00;99.90;;;;;;5039599;28;20441;-87
2022/06/07 06:05:45;;;;;;;0.20;0.20;;;13.00;99.90;;;;;;5046149;28;20441;-85
2022/06/07 06:11:12;;;;;;;0.40;0.40;;;13.00;99.90;;;;;;5048460;28;20463;-84
2022/06/07 06:13:38;;;;;;;0.20;0.20;;;13.10;99.90;;;;;;5050664;28;20924;-84
2022/06/07 06:16:10;;;;;;;0.10;0.10;;;13.00;99.90;;;;;;5068382;28;20437;-85
2022/06/07 06:18:36;;;;;;;0.13;0.13;;;13.10;99.90;;;;;;5048107;28;20285;-83
2022/06/07 06:21:02;;;;;;;0.47;0.47;;;13.20;99.90;;;;;;5048601;28;20436;-83
2022/06/07 06:23:28;;;;;;;0.20;0.20;;;13.20;99.90;;;;;;5053155;28;20429;-79
2022/06/07 06:25:53;;;;;;;0.10;0.10;;;13.30;99.90;;;;;;5049943;28;20433;-81
2022/06/07 06:28:19;;;;;;;0.10;0.10;;;13.40;99.90;;;;;;5046866;28;20223;-83
2022/06/07 06:30:45;;;;;;;0.10;0.10;;;13.40;99.90;;;;;;5052522;28;20210;-81
2022/06/07 06:33:12;;;;;;;0.10;0.10;;;13.40;99.90;;;;;;5045799;28;20515;-86
2022/06/07 06:35:38;;;;;;;0.23;0.23;;;13.40;99.90;;;;;;5047420;28;20445;-85
2022/06/07 06:38:04;;;;;;;0.20;0.20;;;13.30;99.90;;;;;;5049581;28;20511;-83
2022/06/07 06:40:30;;;;;;;0.20;0.20;;;13.40;99.90;;;;;;5043332;28;20477;-84
2022/06/07 06:42:55;;;;;;;0.27;0.27;;;13.40;99.90;;;;;;5046247;28;20715;-86
2022/06/07 06:45:21;;;;;;;0.10;0.10;;;13.40;99.90;;;;;;5053090;28;20424;-89
2022/06/07 06:47:46;;;;;;;0.40;0.40;;;13.50;99.90;;;;;;5053397;28;20181;-90
2022/06/07 06:50:13;;;;;;;0.40;0.40;;;13.50;99.90;;;;;;5051098;28;20201;-88
2022/06/07 06:52:39;;;;;;;0.30;0.30;;;13.50;99.90;;;;;;5051839;28;20310;-87
2022/06/07 06:55:06;;;;;;;0.70;0.70;;;13.50;99.90;;;;;;5051289;28;20539;-84
2022/06/07 06:57:31;;;;;;;0.27;0.27;;;13.60;99.90;;;;;;5063679;28;20443;-85
2022/06/07 06:59:57;;;;;;;0.13;0.13;;;13.70;99.90;;;;;;5051222;28;20440;-86
2022/06/07 07:02:22;;;;;;;0.10;0.10;;;13.80;99.90;;;;;;5047787;28;20194;-84
2022/06/07 07:04:48;;;;;;;0.10;0.10;;;13.80;99.90;;;;;;5051442;28;20674;-86
2022/06/07 07:07:13;;;;;;;0.10;0.10;;;13.90;99.90;;;;;;5041630;28;20286;-85
2022/06/07 07:09:39;;;;;;;0.50;0.50;;;13.90;99.90;;;;;;5052788;28;20230;-86
2022/06/07 07:12:05;;;;;;;0.67;0.67;;;14.00;99.90;;;;;;5051824;28;20297;-81
2022/06/07 07:14:30;;;;;;;0.20;0.20;;;14.00;99.90;;;;;;5048560;28;20902;-86
2022/06/07 07:16:56;;;;;;;0.10;0.10;;;14.00;99.90;;;;;;5049693;28;20544;-84
2022/06/07 07:19:22;;;;;;;0.23;0.23;;;14.10;99.90;;;;;;5049244;28;20198;-86
2022/06/07 07:21:49;;;;;;;0.10;0.10;;;14.00;99.90;;;;;;5046124;28;20399;-83
2022/06/07 07:24:17;;;;;;;0.57;0.57;;;14.10;99.90;;;;;;5048741;28;20201;-84
2022/06/07 07:26:44;;;;;;;0.20;0.20;;;14.20;99.90;;;;;;5050100;28;20429;-86
2022/06/07 07:29:12;;;;;;;0.10;0.10;;;14.20;99.90;;;;;;5048617;28;20444;-84
2022/06/07 07:31:38;;;;;;;0.10;0.10;;;14.30;99.90;;;;;;5066848;28;20994;-82
2022/06/07 07:34:07;;;;;;;0.10;0.10;;;14.40;99.90;;;;;;5052038;28;20464;-85
2022/06/07 07:36:34;;;;;;;0.10;0.10;;;14.40;99.90;;;;;;5053443;28;20421;-82
2022/06/07 07:39:01;;;;;;;0.13;0.13;;;14.50;99.90;;;;;;5053648;28;20451;-88
2022/06/07 07:41:29;;;;;;;0.10;0.10;;;14.60;99.90;;;;;;5051964;28;20445;-83
2022/06/07 07:43:57;;;;;;;0.20;0.20;;;14.50;99.90;;;;;;5055315;28;20448;-86
2022/06/07 07:46:25;;;;;;;0.10;0.10;;;14.40;99.90;;;;;;5064000;28;20459;-83
2022/06/07 07:48:51;;;;;;;0.10;0.10;;;14.30;99.90;;;;;;5052981;28;20433;-84
2022/06/07 07:51:20;;;;;;;0.10;0.10;;;14.40;99.90;;;;;;5050712;28;20471;-87
2022/06/07 07:53:47;;;;;;;0.10;0.10;;;14.70;99.90;;;;;;5049642;28;20727;-85
2022/06/07 07:56:13;;;;;;;0.10;0.10;;;14.70;99.90;;;;;;5055578;28;20519;-90
2022/06/07 07:58:39;;;;;;;0.10;0.10;;;14.70;99.90;;;;;;5056028;28;20461;-83
2022/06/07 08:01:14;;;;;;;0.10;0.10;;;14.70;99.90;;;;;;5066890;28;20446;-81
2022/06/07 08:03:40;;;;;;;0.10;0.10;;;14.60;99.90;;;;;;5065250;28;20186;-82
2022/06/07 08:06:07;;;;;;;0.10;0.10;;;14.70;99.90;;;;;;5055392;28;20480;-86
2022/06/07 08:08:33;;;;;;;0.10;0.10;;;14.60;99.90;;;;;;5050918;28;21058;-88
2022/06/07 08:10:59;;;;;;;0.17;0.17;;;14.80;99.90;;;;;;5052894;28;20595;-88
2022/06/07 08:13:24;;;;;;;0.10;0.10;;;14.90;99.90;;;;;;5051824;28;20536;-84
2022/06/07 08:15:50;;;;;;;0.10;0.10;;;14.80;99.90;;;;;;5050771;28;20197;-87
2022/06/07 08:18:16;;;;;;;0.10;0.10;;;14.80;99.90;;;;;;5051156;28;20202;-84
2022/06/07 08:20:41;;;;;;;0.10;0.10;;;14.70;99.90;;;;;;5053468;28;20652;-88
2022/06/07 08:23:07;;;;;;;0.10;0.10;;;14.50;99.90;;;;;;5052195;28;20187;-88
2022/06/07 08:25:34;;;;;;;0.10;0.10;;;14.40;99.90;;;;;;5047592;28;20195;-83
2022/06/07 08:28:02;;;;;;;0.10;0.10;;;14.20;99.90;;;;;;5056820;28;20442;-85
2022/06/07 08:30:28;;;;;;;0.10;0.10;;;13.90;99.90;;;;;;5052970;28;20530;-86
2022/06/07 08:32:53;;;;;;;0.10;0.10;;;13.80;99.90;;;;;;5052109;28;20899;-83
2022/06/07 08:38:04;;;;;;;0.10;0.10;;;13.70;99.90;;;;;;5054946;28;20603;-84
2022/06/07 08:40:39;;;;;;;0.10;0.10;;;13.70;99.90;;;;;;5061921;28;20845;-84
2022/06/07 08:43:18;;;;;;;0.10;0.10;;;13.70;99.90;;;;;;5051832;28;20448;-79
2022/06/07 08:45:47;;;;;;;0.10;0.10;;;13.60;99.90;;;;;;5047506;28;20445;-83
2022/06/07 08:48:18;;;;;;;0.10;0.10;;;13.50;99.90;;;;;;5056325;28;20797;-86
2022/06/07 08:50:44;;;;;;;0.10;0.10;;;13.50;99.90;;;;;;5050881;28;20539;-88
2022/06/07 08:53:17;;;;;;;0.10;0.10;;;13.50;99.90;;;;;;5049696;28;20505;-84
2022/06/07 08:55:57;;;;;;;0.10;0.10;;;13.40;99.90;;;;;;5052382;28;20480;-80
2022/06/07 08:58:38;;;;;;;0.10;0.10;;;13.40;99.90;;;;;;5073476;28;20601;-90
2022/06/07 09:01:18;;;;;;;0.10;0.10;;;13.40;99.90;;;;;;5052882;28;20436;-82
2022/06/07 09:03:53;;;;;;;0.10;0.10;;;13.40;99.90;;;;;;5049915;28;20459;-86
2022/06/07 09:06:25;;;;;;;0.20;0.20;;;13.40;99.90;;;;;;5040554;28;20424;-85
2022/06/07 09:08:57;;;;;;;0.10;0.10;;;13.40;99.90;;;;;;5052280;28;20807;-88
2022/06/07 09:14:47;;;;;;;0.10;0.10;;;13.30;99.90;;;;;;5050868;28;20664;-89
2022/06/07 09:17:17;;;;;;;0.10;0.10;;;13.50;99.90;;;;;;5051326;28;20473;-86
2022/06/07 09:19:44;;;;;;;0.10;0.10;;;13.70;99.90;;;;;;5053074;28;20582;-86
2022/06/07 09:22:20;;;;;;;0.20;0.20;;;13.80;99.90;;;;;;5060597;28;20437;-89
2022/06/07 09:25:06;;;;;;;0.20;0.20;;;14.10;99.90;;;;;;5057082;28;20562;-88
2022/06/07 09:27:33;;;;;;;0.10;0.10;;;14.40;99.90;;;;;;5069722;28;20456;-88
2022/06/07 09:30:33;;;;;;;0.10;0.10;;;14.50;99.90;;;;;;5058480;28;20457;-86
2022/06/07 09:33:19;;;;;;;0.10;0.10;;;14.40;99.90;;;;;;5050663;28;20488;-88
2022/06/07 09:35:44;;;;;;;0.10;0.10;;;14.30;99.90;;;;;;5061025;28;20441;-93
2022/06/07 09:38:27;;;;;;;0.10;0.10;;;14.20;99.90;;;;;;5073503;28;20463;-94
2022/06/07 09:40:52;;;;;;;0.10;0.10;;;14.10;99.90;;;;;;5053054;28;20554;-90
2022/06/07 09:43:22;;;;;;;0.10;0.10;;;14.10;99.90;;;;;;5052910;28;20516;-89
2022/06/07 09:46:00;;;;;;;0.10;0.10;;;14.00;99.90;;;;;;5066421;28;20193;-91
2022/06/07 09:48:35;;;;;;;0.10;0.10;;;14.00;99.90;;;;;;5049889;28;20445;-92
2022/06/07 09:51:07;;;;;;;0.10;0.10;;;14.10;99.90;;;;;;5051339;28;20503;-93
2022/06/07 09:54:00;;;;;;;0.10;0.10;;;14.30;99.90;;;;;;5052329;28;20449;-86
2022/06/07 09:56:45;;;;;;;0.10;0.10;;;14.30;99.90;;;;;;5041787;28;20783;-92
2022/06/07 09:59:27;;;;;;;0.10;0.10;;;14.50;99.90;;;;;;5053793;28;20448;-86
2022/06/07 10:02:01;;;;;;;0.10;0.10;;;15.00;99.90;;;;;;5051932;28;20986;-91
2022/06/07 10:04:48;;;;;;;0.10;0.10;;;15.10;99.90;;;;;;5063116;28;21018;-86
2022/06/07 10:07:27;;;;;;;0.10;0.10;;;15.30;99.90;;;;;;5063642;28;20456;-87
2022/06/07 10:10:08;;;;;;;0.10;0.10;;;15.50;99.90;;;;;;5054613;28;20565;-89
2022/06/07 10:12:53;;;;;;;0.10;0.10;;;15.60;99.90;;;;;;5051715;28;20999;-85
2022/06/07 10:15:59;;;;;;;0.10;0.10;;;15.60;99.90;;;;;;5050554;28;20441;-89
2022/06/07 10:19:01;;;;;;;0.10;0.10;;;15.50;99.90;;;;;;5000726;28;20504;-87
2022/06/07 10:21:57;;;;;;;0.10;0.10;;;15.40;99.90;;;;;;5052800;28;20446;-89
2022/06/07 10:24:47;;;;;;;0.10;0.10;;;15.60;99.90;;;;;;5052026;28;20445;-84
2022/06/07 10:27:43;;;;;;;0.10;0.10;;;15.50;99.90;;;;;;5055280;28;20531;-94
2022/06/07 10:30:17;;;;;;;0.10;0.10;;;15.50;99.90;;;;;;5051200;28;20964;-89
2022/06/07 10:33:00;;;;;;;0.10;0.10;;;15.50;99.90;;;;;;5069628;28;20476;-91
2022/06/07 10:35:49;;;;;;;0.10;0.10;;;15.40;99.90;;;;;;5055820;28;20449;-88
2022/06/07 10:38:35;;;;;;;0.10;0.10;;;15.30;99.90;;;;;;5046107;28;20433;-90
2022/06/07 10:41:20;;;;;;;0.10;0.10;;;15.30;99.90;;;;;;5066588;28;20473;-88
2022/06/07 10:44:10;;;;;;;0.10;0.10;;;15.20;99.90;;;;;;5051857;28;20831;-84
2022/06/07 10:46:40;;;;;;;0.10;0.10;;;15.20;99.90;;;;;;5063052;28;20444;-88
2022/06/07 10:49:22;;;;;;;0.10;0.10;;;15.10;99.90;;;;;;5053387;28;21082;-93
2022/06/07 10:54:52;;;;;;;0.10;0.10;;;15.00;99.90;;;;;;5052669;28;20994;-92
2022/06/07 10:57:35;;;;;;;0.10;0.10;;;14.90;99.90;;;;;;5066745;28;21067;-88
2022/06/07 11:00:22;;;;;;;0.10;0.10;;;14.60;99.90;;;;;;5065516;28;20518;-86
2022/06/07 11:03:09;;;;;;;0.10;0.10;;;14.40;99.90;;;;;;5052677;28;20449;-91
2022/06/07 11:11:35;;;;;;;0.10;0.10;;;13.80;99.90;;;;;;5054855;28;20514;-87
2022/06/07 11:14:07;;;;;;;0.13;0.13;;;13.70;99.90;;;;;;5050302;28;20472;-91
2022/06/07 11:16:48;;;;;;;0.10;0.10;;;13.70;99.90;;;;;;5058237;28;20441;-92
2022/06/07 11:19:13;;;;;;;0.10;0.10;;;13.60;99.90;;;;;;5047441;28;20453;-89
2022/06/07 11:21:45;;;;;;;0.10;0.10;;;13.60;99.90;;;;;;5072641;28;20433;-90
2022/06/07 11:24:14;;;;;;;0.10;0.10;;;13.60;99.90;;;;;;5056427;28;20178;-89
2022/06/07 11:26:52;;;;;;;0.10;0.10;;;13.60;99.90;;;;;;5054125;28;20444;-88
2022/06/07 11:29:32;;;;;;;0.10;0.10;;;13.70;99.90;;;;;;5055863;28;20440;-91
2022/06/07 11:32:00;;;;;;;0.10;0.10;;;13.70;99.90;;;;;;5057704;28;20488;-95
2022/06/07 11:34:32;;;;;;;0.10;0.10;;;13.80;99.90;;;;;;5060428;28;20448;-89
2022/06/07 11:37:16;;;;;;;0.10;0.10;;;13.70;99.90;;;;;;5055269;28;20408;-91
2022/06/07 11:39:44;;;;;;;0.20;0.20;;;13.80;99.90;;;;;;5055849;28;20432;-92
2022/06/07 11:42:12;;;;;;;0.10;0.10;;;14.00;99.90;;;;;;5040711;28;20453;-92
2022/06/07 11:44:58;;;;;;;0.10;0.10;;;14.30;99.90;;;;;;5048965;28;20449;-88
2022/06/07 11:47:32;;;;;;;0.10;0.10;;;14.50;99.90;;;;;;5036340;28;20422;-93
2022/06/07 11:50:03;;;;;;;0.10;0.10;;;14.80;99.90;;;;;;5065767;28;20447;-92
2022/06/07 11:52:33;;;;;;;0.10;0.10;;;15.10;99.90;;;;;;5055646;28;20560;-88
2022/06/07 11:55:17;;;;;;;0.10;0.10;;;15.40;99.90;;;;;;5053895;28;20433;-89
2022/06/07 11:58:04;;;;;;;0.10;0.10;;;15.60;99.90;;;;;;5057960;28;20486;-89
2022/06/07 12:00:29;;;;;;;0.10;0.10;;;15.60;99.90;;;;;;5073818;28;20428;-88
2022/06/07 12:02:58;;;;;;;0.10;0.10;;;15.40;99.90;;;;;;5058035;28;20433;-84
2022/06/07 12:05:46;;;;;;;0.10;0.10;;;15.30;99.90;;;;;;5055140;28;20662;-87
2022/06/07 12:08:32;;;;;;;0.10;0.10;;;15.30;99.90;;;;;;5053465;28;20987;-84
2022/06/07 12:11:04;;;;;;;0.10;0.10;;;15.60;99.90;;;;;;5050550;28;20622;-90
2022/06/07 12:13:52;;;;;;;0.10;0.10;;;15.60;99.90;;;;;;5053528;28;20465;-88
2022/06/07 12:16:25;;;;;;;0.10;0.10;;;15.50;99.90;;;;;;5073171;28;20523;-89
2022/06/07 12:18:55;;;;;;;0.10;0.10;;;15.40;99.90;;;;;;5063777;28;20836;-90
2022/06/07 12:21:22;;;;;;;0.10;0.10;;;15.60;99.90;;;;;;5055363;28;20444;-89
2022/06/07 12:23:50;;;;;;;0.10;0.10;;;15.70;99.90;;;;;;5050392;28;20533;-83
2022/06/07 12:26:28;;;;;;;0.10;0.10;;;15.80;99.90;;;;;;5069621;28;20439;-89
2022/06/07 12:29:11;;;;;;;0.10;0.10;;;15.80;99.90;;;;;;5066509;28;20453;-85
2022/06/07 12:32:00;;;;;;;0.10;0.10;;;15.80;99.90;;;;;;5051753;28;20472;-89
2022/06/07 12:34:36;;;;;;;0.10;0.10;;;15.90;99.90;;;;;;5038554;28;20971;-90
2022/06/07 12:37:14;;;;;;;0.10;0.10;;;16.00;99.90;;;;;;5046195;28;20449;-95
2022/06/07 12:39:51;;;;;;;0.10;0.10;;;17.20;99.90;;;;;;5039102;28;20445;-88
2022/06/07 12:42:18;;;;;;;0.10;0.10;;;17.40;99.90;;;;;;5057898;28;20543;-94
2022/06/07 12:44:59;;;;;;;0.10;0.10;;;16.90;99.90;;;;;;5050247;28;20477;-89
2022/06/07 12:47:26;;;;;;;0.10;0.10;;;16.20;99.90;;;;;;5047751;28;20486;-87
2022/06/07 12:49:53;;;;;;;0.10;0.10;;;15.70;99.90;;;;;;5065733;28;20436;-88
2022/06/07 12:52:21;;;;;;;0.10;0.10;;;15.60;99.90;;;;;;5053089;28;20520;-90
2022/06/07 12:54:50;;;;;;;0.10;0.10;;;15.50;99.90;;;;;;5049142;28;20442;-92
2022/06/07 12:57:22;;;;;;;0.10;0.10;;;15.50;99.90;;;;;;5049424;28;20440;-91
2022/06/07 13:00:00;;;;;;;0.10;0.10;;;15.40;99.90;;;;;;5059188;28;20448;-89
2022/06/07 13:02:43;;;;;;;0.10;0.10;;;15.40;99.90;;;;;;5052488;28;20819;-88
2022/06/07 13:05:16;;;;;;;0.10;0.10;;;15.30;99.90;;;;;;5053956;28;20976;-89
2022/06/07 13:07:51;;;;;;;0.10;0.10;;;15.40;99.90;;;;;;5053803;28;20440;-91
2022/06/07 13:10:28;;;;;;;0.10;0.10;;;15.40;99.90;;;;;;5072358;28;20920;-92
2022/06/07 13:13:01;;;;;;;0.10;0.10;;;15.50;99.90;;;;;;5034678;28;20462;-91
2022/06/07 13:15:35;;;;;;;0.10;0.10;;;15.50;99.90;;;;;;5034101;28;20418;-90
2022/06/07 13:18:15;;;;;;;0.10;0.10;;;15.50;99.90;;;;;;5041197;28;20445;-93
2022/06/07 13:20:46;;;;;;;0.10;0.10;;;15.40;99.90;;;;;;5043475;28;20453;-86
2022/06/07 13:23:25;;;;;;;0.10;0.10;;;15.30;99.90;;;;;;5040701;28;20452;-89
2022/06/07 13:25:54;;;;;;;0.10;0.10;;;15.30;99.90;;;;;;5046604;28;20540;-91
2022/06/07 13:28:22;;;;;;;0.10;0.10;;;15.20;99.90;;;;;;5053763;28;20586;-92
2022/06/07 13:30:50;;;;;;;0.10;0.10;;;15.00;99.90;;;;;;5051521;28;20449;-91
2022/06/07 13:33:29;;;;;;;0.10;0.10;;;15.00;99.90;;;;;;5052874;28;20480;-89